• Join FlightAware (Why Join?)
  • Login
  • US Flag 
09:58AM EDT


 

Airport Tracker/Info


-or-


 

Live Flight TrackerFlight Track Log ✈ RPA3288 ✈ 17-Jun-2014 ✈ KTPA - KDCA

Flight Track Log - Related Links

Times and Time Zones

All times are in EDT time to prevent confusion due to time zone crossing. See the RPA3288 flight status page for this flight to view local times or setup timezone preferences in your user account.

Time Position Orientation Groundspeed Altitude Reporting Facility
EDT Latitude Longitude Course Direction KTS MPH feet Rate Location/Type
12:15PM 28.0000 -82.5500 North 153 176 600  Level Tampa TRACON
12:17PM 28.0500 -82.5500 360° North 203 234 2,300 2,280 Climbing Tampa TRACON
12:18PM 28.2893 -82.5667 North  Level FlightAware Approximate
12:19PM 28.3998 -82.5683 355° North  Level FlightAware Approximate
12:19PM 28.2181 -82.5553 358° North 272 313 8,700  Level Miami Center
12:20PM 28.5099 -82.5793 355° North  Level FlightAware Approximate
12:20PM 28.2997 -82.5625 356° North 282 325 10,800  Level Jacksonville Center
12:21PM 28.6203 -82.5833 North  Level FlightAware Approximate
12:21PM 28.3936 -82.5692 356° North 308 354 13,100  Level Jacksonville Center
12:22PM 28.4875 -82.5761 356° North 326 375 15,400 2,160 Climbing Jacksonville Center
12:23PM 28.5900 -82.5828 357° North 343 395 17,500 1,740 Climbing Jacksonville Center
12:24PM 28.6692 -82.5919 354° North 350 403 18,900 1,680 Climbing Jacksonville Center
12:25PM 28.7819 -82.6036 355° North 360 414 20,900 1,800 Climbing Jacksonville Center
12:26PM 28.8883 -82.6200 352° North 371 427 22,500 1,620 Climbing Jacksonville Center
12:27PM 28.9992 -82.6339 354° North 384 442 24,200 1,500 Climbing Jacksonville Center
12:28PM 29.1097 -82.6503 353° North 389 448 25,500 1,200 Climbing Jacksonville Center
12:29PM 29.2267 -82.6667 353° North 403 464 26,700 1,200 Climbing Jacksonville Center
12:30PM 29.3436 -82.6831 353° North 415 478 28,000 1,200 Climbing Jacksonville Center
12:31PM 29.4606 -82.6922 356° North 420 483 29,200 1,140 Climbing Jacksonville Center
12:32PM 29.5919 -82.6681 North 430 495 30,300 1,020 Climbing Jacksonville Center
12:33PM 29.6964 -82.6367 15° North 425 489 31,300 1,080 Climbing Jacksonville Center
12:34PM 29.8236 -82.5981 15° North 425 489 32,500 1,020 Climbing Jacksonville Center
12:35PM 29.9383 -82.5667 13° North 425 489 33,400 900 Climbing Jacksonville Center
12:36PM 30.0531 -82.5375 12° North 425 489 34,300 60 Climbing Jacksonville Center
12:57PM 32.5825 -81.6794 23° Northeast 452 520 35,000  Climbing Jacksonville Center
12:58PM 32.2296 -81.8302 21° North  Level FlightAware Approximate
12:58PM 32.6883 -81.6289 22° Northeast 447 514 35,000  Level Jacksonville Center
12:59PM 32.3298 -81.7844 21° North  Level FlightAware Approximate
12:59PM 32.8047 -81.5606 26° Northeast 452 520 35,000  Level Jacksonville Center
01:00PM 32.4300 -81.7385 21° North  Level FlightAware Approximate
01:00PM 32.9186 -81.4747 32° Northeast 447 514 35,000  Level Jacksonville Center
01:01PM 32.5301 -81.6925 21° North  Level FlightAware Approximate
01:01PM 33.0239 -81.3861 35° Northeast 447 514 35,000  Level Jacksonville Center
01:02PM 32.6293 -81.6438 23° Northeast  Level FlightAware Approximate
01:02PM 33.1272 -81.3028 34° Northeast 452 520 35,000  Level Jacksonville Center
01:03PM 33.2325 -81.2164 34° Northeast 452 520 35,000  Level Jacksonville Center
01:04PM 33.3358 -81.1347 33° Northeast 452 520 35,000  Level Jacksonville Center
01:05PM 33.4369 -81.0533 34° Northeast 452 520 35,000  Level Jacksonville Center
01:06PM 33.5419 -80.9664 35° Northeast 452 520 35,000  Level Jacksonville Center
01:07PM 33.6450 -80.8817 34° Northeast 452 520 35,000  Level Jacksonville Center
01:08PM 33.7500 -80.7944 35° Northeast 452 520 35,000  Level Jacksonville Center
01:09PM 33.8531 -80.7119 34° Northeast 452 520 35,000  Level Jacksonville Center
01:10PM 33.9558 -80.6242 35° Northeast 447 514 35,000  Level Jacksonville Center
01:11PM 34.0586 -80.5389 34° Northeast 447 514 35,000  Level Jacksonville Center
01:13PM 34.2753 -80.3542 35° Northeast 467 537 35,000  Level Washington Center
01:14PM 34.3786 -80.2697 34° Northeast 454 522 35,000  Level Washington Center
01:15PM 34.4778 -80.1847 35° Northeast 456 525 35,000  Level Washington Center
01:16PM 34.5794 -80.0969 35° Northeast 450 518 35,000  Level Washington Center
01:17PM 34.6614 -80.0258 36° Northeast 450 518 35,000  Level Washington Center
01:18PM 34.7733 -79.9308 35° Northeast 450 518 35,000  Level Washington Center
01:19PM 34.8744 -79.8450 35° Northeast 445 512 35,000  Level Washington Center
01:20PM 34.9756 -79.7592 35° Northeast 445 512 35,000  Level Washington Center
01:21PM 35.0744 -79.6753 35° Northeast 435 501 35,000  Level Washington Center
01:22PM 35.1711 -79.5889 36° Northeast 435 501 35,000  Level Washington Center
01:23PM 35.2600 -79.4914 42° Northeast 428 493 35,000  Level Washington Center
01:24PM 35.3594 -79.3867 41° Northeast 421 484 35,000  Level Washington Center
01:25PM 35.4561 -79.2944 38° Northeast 432 497 35,000  Level Washington Center
01:26PM 35.5550 -79.2047 36° Northeast 433 498 35,000  Level Washington Center
01:27PM 35.6364 -79.1267 38° Northeast 427 491 35,000  Level Washington Center
01:28PM 35.7331 -79.0361 37° Northeast 427 491 35,000  Level Washington Center
01:29PM 35.8294 -78.9481 37° Northeast 427 491 35,000  Level Washington Center
01:30PM 35.9258 -78.8572 37° Northeast 427 491 35,000  Level Washington Center
01:31PM 36.0286 -78.7589 38° Northeast 427 491 35,000 -1,020 Level Washington Center
01:32PM 36.1250 -78.6650 38° Northeast 427 491 33,000 -2,160 Descending Washington Center
01:33PM 36.2233 -78.5736 37° Northeast 427 491 30,700 -2,340 Descending Washington Center
01:34PM 36.3194 -78.4819 38° Northeast 427 491 28,300 -1,920 Descending Washington Center
01:35PM 36.4197 -78.3847 38° Northeast 433 498 27,000 -660 Descending Washington Center
01:36PM 36.5181 -78.2903 38° Northeast 438 504 27,000 -300 Level Washington Center
01:37PM 36.6161 -78.1953 38° Northeast 438 504 26,400 -1,020 Descending Washington Center
01:38PM 36.7119 -78.1000 39° Northeast 443 510 25,000 -720 Descending Washington Center
01:39PM 36.8078 -78.0044 39° Northeast 443 510 25,000  Level Washington Center
01:40PM 36.9178 -77.9325 28° Northeast 443 510 25,000  Level Washington Center
01:41PM 37.0294 -77.8736 23° Northeast 435 501 25,000  Level Washington Center
01:42PM 37.1411 -77.8092 25° Northeast 435 501 25,000 -720 Level Washington Center
01:43PM 37.2508 -77.7497 23° Northeast 430 495 23,700 -1,500 Descending Washington Center
01:44PM 37.3581 -77.6900 24° Northeast 420 483 22,000 -900 Descending Washington Center
01:45PM 37.4636 -77.6300 24° Northeast 420 483 22,000  Level Washington Center
01:46PM 37.5708 -77.5675 25° Northeast 420 483 22,000  Level Washington Center
01:47PM 37.6783 -77.5072 24° Northeast 420 483 22,000 -720 Level Washington Center
01:48PM 37.7856 -77.4469 24° Northeast 420 483 20,600 -1,740 Descending Washington Center
01:49PM 37.8886 -77.3889 24° Northeast 415 478 18,500 -2,100 Descending Washington Center
01:50PM 37.9875 -77.3306 25° Northeast 402 463 16,500 -2,100 Descending Washington Center
01:51PM 38.0822 -77.2800 23° Northeast 384 442 14,400 -2,040 Descending Washington Center
01:52PM 38.1725 -77.2267 25° Northeast 367 422 12,400 -1,920 Descending Washington Center
01:53PM 38.2586 -77.1808 23° Northeast 347 399 10,700 -1,260 Descending Washington Center
01:54PM 38.3303 -77.1322 28° Northeast 316 364 10,000 -1,320 Descending Washington Center
01:55PM 38.3956 -77.0778 33° Northeast 290 334 8,100 -1,740 Descending Washington Center
01:56PM 38.4628 -77.0289 30° Northeast 276 318 6,500 -1,380 Descending Washington Center
01:57PM 38.5172 -77.0061 18° North 238 274 5,400 -840 Descending Washington Center
01:58PM 38.5736 -77.0122 355° North 204 235 4,900 -660 Descending Washington Center
01:59PM 38.6214 -77.0186 354° North 191 220 4,100 -900 Descending Washington Center
02:00PM 38.6833 -77.0167 North 178 205 2,800 -1,020 Descending Potomac TRACON
02:01PM 38.7500 -77.0333 349° North 182 209 1,800 -960 Descending Potomac TRACON
02:02PM 38.7833 -77.0333 360° North 162 186 900 -840 Descending Potomac TRACON
02:03PM 38.8333 -77.0333 360° North 137 158 200 -720 Descending Potomac TRACON
02:05PM 38.8500 -77.0333 North  Level FlightAware Approximate
02:12PM 38.8519 -77.0377 North  Level Estimated
02:13PM 38.8500 -77.0333 North  Level FlightAware Approximate